CDT,Max TemperatureF,Mean TemperatureF,Min TemperatureF,Max Dew PointF,MeanDew PointF,Min DewpointF,Max Humidity, Mean Humidity, Min Humidity, Max Sea Level PressureIn, Mean Sea Level PressureIn, Min Sea Level PressureIn, Max VisibilityMiles, Mean VisibilityMiles, Min VisibilityMiles, Max Wind SpeedMPH, Mean Wind SpeedMPH, Max Gust SpeedMPH,PrecipitationIn, CloudCover, Events, WindDirDegrees
2013-7-1,82,66,50,57,52,48,100,62,30,30.19,30.15,30.12,10,9,5,14,3,22,0.00,2,,46
2013-7-2,82,70,57,61,55,48,94,64,32,30.17,30.12,30.06,10,10,7,14,3,21,0.00,2,Rain,360
2013-7-3,82,68,55,61,56,48,100,65,35,30.07,30.02,29.96,10,9,4,10,2,17,0.00,1,,190
2013-7-4,84,72,60,59,55,54,82,56,35,30.00,29.96,29.91,10,10,10,20,8,29,0.00,0,,181
2013-7-5,86,76,66,64,60,55,73,58,43,29.93,29.90,29.86,10,10,9,20,13,30,0.00,0,,177
2013-7-6,87,78,69,68,63,59,73,61,48,29.89,29.86,29.81,10,10,9,20,14,28,0.00,0,,174
2013-7-7,87,80,73,73,67,61,89,65,52,29.93,29.87,29.84,10,10,7,20,9,23,0.00,1,Rain,202
2013-7-8,89,80,71,75,72,70,94,77,55,29.97,29.94,29.90,10,8,3,10,4,14,0.00,1,Rain,141
2013-7-9,91,82,73,73,71,63,89,71,52,29.99,29.92,29.87,10,10,4,22,7,31,0.04,2,Rain,278
2013-7-10,80,71,62,68,59,52,94,65,37,30.10,30.05,29.97,10,10,9,18,7,24,0.00,0,,26
2013-7-11,84,70,57,61,58,54,94,62,42,30.12,30.06,29.99,10,10,7,13,5,22,0.00,0,,148
2013-7-12,87,76,66,66,62,57,78,60,48,30.03,29.98,29.93,10,10,8,22,12,30,0.00,0,,165
2013-7-13,87,78,69,72,65,57,78,64,57,30.01,29.97,29.95,10,10,2,26,14,32,0.22,1,Rain,161
2013-7-14,84,76,68,64,61,57,83,61,42,30.18,30.09,30.02,10,10,9,16,10,22,0.00,2,,145
2013-7-15,86,74,62,70,66,61,94,71,55,30.23,30.18,30.13,10,10,6,15,5,20,0.00,1,Rain,134
2013-7-16,87,78,69,72,68,66,94,73,52,30.27,30.23,30.19,10,10,8,10,5,15,0.00,1,,179
2013-7-17,91,80,68,72,69,66,100,71,46,30.31,30.25,30.18,10,9,5,14,4,18,0.00,0,,184
2013-7-18,91,81,71,72,69,66,88,67,46,30.19,30.06,29.93,10,10,9,20,9,26,0.00,0,,204
2013-7-19,91,80,66,72,64,57,88,59,33,29.95,29.91,29.88,10,10,7,14,6,16,0.00,0,Rain,283
2013-7-20,84,70,57,68,61,55,100,71,42,30.00,29.94,29.88,10,10,8,9,2,,0.00,0,,111
2013-7-21,87,74,62,68,65,61,94,75,48,29.94,29.85,29.79,10,10,8,15,3,21,0.00,1,,140
2013-7-22,91,80,68,73,69,64,100,74,52,29.88,29.80,29.74,10,10,5,14,6,21,0.00,1,,233
2013-7-23,78,70,62,64,58,55,88,68,44,30.01,29.95,29.86,10,10,9,15,7,23,0.00,0,,44
2013-7-24,80,66,51,63,57,52,100,72,48,30.10,30.05,30.02,10,10,6,10,2,14,0.00,1,,331
2013-7-25,82,70,59,68,62,57,100,76,54,30.05,30.01,29.95,10,10,3,18,5,26,0.07,2,Rain,206
2013-7-26,73,64,55,64,57,50,100,73,49,30.11,30.06,29.97,10,8,0,22,6,28,0.00,2,Fog,338
2013-7-27,69,58,46,52,47,45,100,70,40,30.13,30.08,30.02,10,10,10,15,3,22,0.00,1,,339
2013-7-28,73,58,42,52,46,41,100,67,35,30.07,30.05,30.02,10,10,9,8,1,16,0.00,0,,331
2013-7-29,68,59,50,61,55,46,94,77,60,30.10,30.07,30.03,10,10,6,12,4,17,0.00,4,Rain,128
2013-7-30,71,66,62,66,64,61,100,92,78,30.11,30.07,30.05,10,6,2,7,3,,0.00,8,,48
2013-7-31,82,70,59,68,62,59,100,79,51,30.14,30.10,30.05,10,6,0,10,2,15,0.00,4,Fog,314